createdAt,value
2022-11-18T00:00:34.355Z,59.00
2022-11-18T00:03:38.014Z,59.30
2022-11-18T00:06:42.725Z,59.20
2022-11-18T00:09:45.875Z,58.90
2022-11-18T00:13:06.772Z,58.10
2022-11-18T00:16:12.932Z,58.20
2022-11-18T00:19:17.399Z,58.40
2022-11-18T00:22:26.919Z,58.70
2022-11-18T00:25:34.839Z,58.70
2022-11-18T00:28:38.757Z,58.70
2022-11-18T00:31:42.444Z,59.00
2022-11-18T00:34:45.966Z,58.60
2022-11-18T00:37:50.887Z,58.40
2022-11-18T00:41:01.881Z,58.30
2022-11-18T00:44:09.353Z,58.20
2022-11-18T00:47:13.030Z,58.40
2022-11-18T00:50:18.501Z,58.60
2022-11-18T00:53:28.242Z,58.80
2022-11-18T00:56:31.755Z,59.00
2022-11-18T00:59:35.145Z,59.00
2022-11-18T01:02:38.793Z,59.00
2022-11-18T01:05:43.057Z,59.10
2022-11-18T01:08:48.350Z,59.20
2022-11-18T01:12:09.049Z,59.10
2022-11-18T01:15:12.356Z,59.30
2022-11-18T01:18:17.692Z,59.20
2022-11-18T01:21:21.276Z,59.30
2022-11-18T01:24:26.710Z,59.30
2022-11-18T01:27:29.987Z,59.40
2022-11-18T01:30:37.647Z,59.70
2022-11-18T01:33:45.066Z,59.80
2022-11-18T01:36:48.470Z,60.80
2022-11-18T01:39:53.360Z,59.90
2022-11-18T01:42:56.868Z,59.90
2022-11-18T01:46:00.343Z,59.90
2022-11-18T01:49:09.813Z,59.80
2022-11-18T01:52:15.930Z,59.80
2022-11-18T01:55:28.486Z,59.90
2022-11-18T01:58:38.529Z,61.30
2022-11-18T02:01:42.861Z,60.20
2022-11-18T02:04:52.206Z,60.10
2022-11-18T02:07:57.899Z,60.10
2022-11-18T02:11:02.951Z,60.10
2022-11-18T02:14:11.144Z,60.70
2022-11-18T02:17:31.488Z,60.30
2022-11-18T02:20:38.866Z,60.50
2022-11-18T02:24:27.523Z,60.50
2022-11-18T02:28:07.998Z,60.80
2022-11-18T02:31:24.489Z,61.00
2022-11-18T02:34:46.451Z,61.20
2022-11-18T02:37:56.622Z,61.50
2022-11-18T02:41:07.469Z,61.50
2022-11-18T02:44:16.088Z,61.50
2022-11-18T02:47:25.635Z,62.00
2022-11-18T02:50:34.888Z,62.40
2022-11-18T02:53:42.813Z,62.60
2022-11-18T02:56:48.518Z,62.80
2022-11-18T02:59:51.646Z,63.00
2022-11-18T03:02:56.706Z,63.10
2022-11-18T03:06:27.388Z,63.40
2022-11-18T03:09:36.000Z,64.30
2022-11-18T03:12:49.778Z,63.70
2022-11-18T03:16:03.811Z,64.50
2022-11-18T03:19:20.017Z,63.90
2022-11-18T03:22:30.505Z,63.90
2022-11-18T03:25:44.397Z,64.30
2022-11-18T03:28:57.649Z,64.00
2022-11-18T03:32:07.731Z,64.30
2022-11-18T03:35:20.477Z,64.20
2022-11-18T03:38:33.984Z,64.70
2022-11-18T03:41:42.683Z,65.00
2022-11-18T03:44:55.635Z,65.30
2022-11-18T03:48:06.307Z,64.40
2022-11-18T03:51:17.558Z,64.60
2022-11-18T03:54:26.000Z,64.70
2022-11-18T03:57:38.398Z,64.70
2022-11-18T04:00:48.164Z,65.40
2022-11-18T04:03:51.836Z,64.60
2022-11-18T04:07:05.203Z,64.40
2022-11-18T04:10:16.650Z,64.90
2022-11-18T04:13:25.589Z,64.80
2022-11-18T04:16:29.219Z,64.80
2022-11-18T04:19:32.802Z,64.80
2022-11-18T04:22:37.860Z,64.80
2022-11-18T04:25:41.495Z,65.00
2022-11-18T04:28:45.132Z,64.80
2022-11-18T04:31:48.818Z,64.80
2022-11-18T04:34:52.904Z,66.50
2022-11-18T04:37:58.628Z,65.90
2022-11-18T04:41:02.452Z,65.80
2022-11-18T04:44:13.444Z,65.80
2022-11-18T04:47:17.617Z,65.60
2022-11-18T04:50:30.748Z,66.20
2022-11-18T04:53:36.157Z,64.30
2022-11-18T04:56:45.788Z,64.70
2022-11-18T04:59:52.689Z,64.50
2022-11-18T05:02:56.796Z,65.00
2022-11-18T05:06:03.475Z,63.40
2022-11-18T05:09:08.572Z,64.90
2022-11-18T05:12:32.753Z,65.90
2022-11-18T05:15:36.776Z,63.50
2022-11-18T05:18:40.273Z,65.10
2022-11-18T05:21:44.457Z,64.80
2022-11-18T05:24:53.331Z,62.70
2022-11-18T05:27:57.003Z,62.60
2022-11-18T05:31:01.318Z,63.70
2022-11-18T05:34:05.128Z,62.50
2022-11-18T05:37:09.120Z,62.20
2022-11-18T05:40:15.204Z,63.10
2022-11-18T05:43:17.563Z,62.40
2022-11-18T05:46:21.044Z,61.30
2022-11-18T05:49:25.055Z,61.30
2022-11-18T05:52:29.758Z,61.10
2022-11-18T05:55:41.915Z,61.00
2022-11-18T05:58:45.182Z,60.90
2022-11-18T06:01:55.973Z,60.90
2022-11-18T06:05:04.639Z,60.80
2022-11-18T06:08:11.556Z,60.90
2022-11-18T06:11:20.840Z,61.40
2022-11-18T06:14:32.747Z,61.40
2022-11-18T06:17:44.014Z,61.40
2022-11-18T06:20:47.948Z,61.40
2022-11-18T06:23:52.347Z,61.10
2022-11-18T06:26:57.426Z,60.90
2022-11-18T06:30:02.904Z,60.70
2022-11-18T06:33:07.030Z,60.70
2022-11-18T06:36:11.966Z,60.80
2022-11-18T06:39:20.753Z,61.10
2022-11-18T06:42:46.019Z,61.10
2022-11-18T06:46:08.679Z,61.20
2022-11-18T06:49:13.442Z,61.50
2022-11-18T06:52:17.053Z,62.00
2022-11-18T06:55:24.468Z,62.20
2022-11-18T06:58:32.375Z,63.30
2022-11-18T07:01:43.018Z,64.30
2022-11-18T07:04:49.036Z,64.50
2022-11-18T07:07:58.288Z,64.00
2022-11-18T07:11:11.986Z,64.90
2022-11-18T07:14:26.483Z,64.90
2022-11-18T07:17:48.651Z,65.60
2022-11-18T07:20:58.485Z,64.50
2022-11-18T07:24:10.916Z,64.40
2022-11-18T07:27:21.177Z,65.10
2022-11-18T07:30:31.728Z,65.00
2022-11-18T07:33:38.296Z,65.10
2022-11-18T07:36:45.550Z,66.20
2022-11-18T07:39:50.403Z,65.80
2022-11-18T07:42:58.808Z,66.20
2022-11-18T07:46:15.641Z,67.00
2022-11-18T07:49:22.840Z,65.20
2022-11-18T07:52:27.888Z,67.20
2022-11-18T07:55:38.798Z,66.30
2022-11-18T07:58:47.952Z,66.60
2022-11-18T08:02:02.254Z,65.90
2022-11-18T08:05:10.170Z,66.40
2022-11-18T08:08:20.701Z,67.50
2022-11-18T08:11:28.092Z,65.90
2022-11-18T08:14:36.321Z,66.90
2022-11-18T08:17:44.479Z,66.90
2022-11-18T08:20:54.644Z,68.50
2022-11-18T08:24:05.028Z,68.20
2022-11-18T08:27:09.273Z,66.20
2022-11-18T08:30:16.160Z,66.60
2022-11-18T08:33:23.092Z,67.20
2022-11-18T08:36:31.772Z,67.80
2022-11-18T08:39:37.897Z,67.40
2022-11-18T08:42:42.708Z,67.80
2022-11-18T08:45:51.388Z,66.90
2022-11-18T08:49:00.912Z,67.90
2022-11-18T08:52:05.788Z,66.90
2022-11-18T08:55:11.648Z,65.50
2022-11-18T08:58:19.923Z,67.10
2022-11-18T09:01:24.961Z,65.40
2022-11-18T09:04:32.155Z,65.50
2022-11-18T09:07:38.724Z,64.70
2022-11-18T09:10:44.330Z,64.00
2022-11-18T09:17:20.673Z,64.10
2022-11-18T09:20:27.859Z,62.80
2022-11-18T09:23:34.499Z,63.90
2022-11-18T09:26:41.688Z,62.70
2022-11-18T09:29:46.801Z,62.00
2022-11-18T09:32:52.208Z,62.70
2022-11-18T09:35:58.948Z,62.50
2022-11-18T09:39:08.502Z,60.90
2022-11-18T09:42:51.561Z,61.90
2022-11-18T09:46:05.657Z,62.30
2022-11-18T09:49:17.012Z,62.40
2022-11-18T09:52:35.698Z,61.20
2022-11-18T09:55:43.789Z,61.10
2022-11-18T09:58:50.562Z,63.00
2022-11-18T10:02:23.651Z,62.10
2022-11-18T10:05:32.054Z,60.00
2022-11-18T10:08:57.205Z,61.10
2022-11-18T10:12:25.892Z,60.80
2022-11-18T10:15:46.730Z,59.80
2022-11-18T10:19:15.897Z,60.60
2022-11-18T10:22:32.242Z,61.10
2022-11-18T10:25:56.418Z,62.00
2022-11-18T10:29:02.990Z,59.70
2022-11-18T10:32:13.212Z,59.90
2022-11-18T10:35:30.506Z,60.00
2022-11-18T10:38:34.048Z,60.20
2022-11-18T10:41:48.112Z,61.20
2022-11-18T10:44:51.574Z,60.60
2022-11-18T10:48:09.924Z,60.40
2022-11-18T10:51:25.828Z,60.30
2022-11-18T10:54:29.202Z,60.00
2022-11-18T10:57:39.139Z,59.80
2022-11-18T11:00:47.089Z,59.70
2022-11-18T11:04:02.012Z,59.40
2022-11-18T11:07:26.581Z,59.70
2022-11-18T11:10:30.464Z,59.80
2022-11-18T11:13:45.110Z,59.90
2022-11-18T11:16:59.091Z,59.50
2022-11-18T11:20:16.645Z,59.40
2022-11-18T11:23:23.680Z,59.30
2022-11-18T11:30:12.634Z,59.10
2022-11-18T11:33:39.237Z,58.90
2022-11-18T11:36:52.513Z,58.50
2022-11-18T11:40:16.896Z,58.70
2022-11-18T11:43:35.995Z,57.80
2022-11-18T11:47:11.253Z,58.20
2022-11-18T11:50:23.770Z,58.10
2022-11-18T11:53:51.913Z,58.50
2022-11-18T11:57:00.455Z,57.40
2022-11-18T12:00:10.622Z,57.50
2022-11-18T12:03:51.426Z,57.20
2022-11-18T12:06:58.304Z,56.50
2022-11-18T12:10:26.606Z,56.30
2022-11-18T12:13:44.763Z,56.20
2022-11-18T12:16:58.238Z,55.90
2022-11-18T12:20:41.754Z,56.00
2022-11-18T12:24:31.018Z,55.50
2022-11-18T12:28:09.556Z,55.10
2022-11-18T12:31:43.168Z,55.40
2022-11-18T12:34:47.170Z,55.30
2022-11-18T12:38:29.796Z,56.10
2022-11-18T12:42:13.431Z,55.20
2022-11-18T12:46:01.375Z,54.90
2022-11-18T12:50:05.697Z,54.80
2022-11-18T12:53:34.286Z,54.20
2022-11-18T12:56:40.051Z,55.60
2022-11-18T12:59:43.633Z,55.10
2022-11-18T13:02:53.381Z,54.90
2022-11-18T13:06:09.399Z,53.90
2022-11-18T13:09:19.229Z,53.80
2022-11-18T13:12:25.827Z,54.00
2022-11-18T13:15:47.536Z,54.10
2022-11-18T13:18:54.415Z,53.90
2022-11-18T13:22:18.626Z,54.30
2022-11-18T13:25:27.525Z,54.40
2022-11-18T13:28:40.150Z,54.00
2022-11-18T13:32:00.126Z,54.40
2022-11-18T13:35:14.906Z,54.40
2022-11-18T13:38:28.316Z,54.40
2022-11-18T13:41:36.475Z,54.10
2022-11-18T13:44:41.375Z,54.10
2022-11-18T13:47:50.015Z,53.60
2022-11-18T13:50:57.122Z,53.60
2022-11-18T13:54:00.793Z,54.20
2022-11-18T13:57:06.748Z,53.70
2022-11-18T14:00:24.765Z,53.40
2022-11-18T14:03:35.061Z,53.50
2022-11-18T14:06:40.905Z,53.70
2022-11-18T14:09:55.672Z,53.80
2022-11-18T14:13:04.368Z,53.10
2022-11-18T14:16:37.400Z,53.40
2022-11-18T14:19:42.343Z,53.20
2022-11-18T14:22:48.877Z,53.80
2022-11-18T14:25:52.930Z,54.10
2022-11-18T14:28:57.859Z,54.60
2022-11-18T14:32:14.880Z,54.90
2022-11-18T14:35:18.165Z,55.00
2022-11-18T14:41:50.305Z,55.90
2022-11-18T14:44:53.765Z,56.10
2022-11-18T14:47:59.033Z,56.40
2022-11-18T14:51:04.040Z,55.10
2022-11-18T14:54:07.965Z,54.70
2022-11-18T14:57:16.979Z,54.50
2022-11-18T15:00:20.883Z,54.30
2022-11-18T15:03:26.532Z,54.30
2022-11-18T15:06:29.966Z,54.20
2022-11-18T15:09:33.577Z,54.30
2022-11-18T15:12:36.960Z,54.50
2022-11-18T15:15:40.656Z,54.80
2022-11-18T15:18:48.286Z,55.00
2022-11-18T15:21:52.066Z,55.30
2022-11-18T15:24:55.480Z,55.50
2022-11-18T15:28:00.854Z,55.50
2022-11-18T15:31:04.999Z,55.60
2022-11-18T15:34:09.871Z,55.50
2022-11-18T15:37:14.265Z,55.60
2022-11-18T15:40:18.280Z,55.70
2022-11-18T15:43:21.594Z,55.90
2022-11-18T15:46:27.773Z,56.00
2022-11-18T15:49:33.405Z,56.10
2022-11-18T15:52:38.536Z,56.20
2022-11-18T15:55:42.048Z,56.30
2022-11-18T15:58:46.868Z,56.40
2022-11-18T16:01:54.205Z,56.30
2022-11-18T16:04:59.391Z,56.30
2022-11-18T16:08:07.329Z,56.40
2022-11-18T16:11:28.320Z,56.50
2022-11-18T16:14:32.634Z,56.60
2022-11-18T16:17:35.962Z,56.70
2022-11-18T16:20:40.999Z,56.70
2022-11-18T16:23:44.807Z,56.70
2022-11-18T16:26:49.506Z,56.60
2022-11-18T16:29:53.003Z,57.00
2022-11-18T16:32:56.920Z,56.20
2022-11-18T16:36:02.201Z,56.10
2022-11-18T16:39:08.433Z,56.00
2022-11-18T16:42:14.083Z,55.80
2022-11-18T16:45:17.808Z,55.50
2022-11-18T16:48:21.806Z,55.50
2022-11-18T16:51:29.012Z,55.50
2022-11-18T16:54:38.267Z,55.40
2022-11-18T16:57:44.504Z,55.50
2022-11-18T17:01:16.370Z,55.50
2022-11-18T17:04:12.792Z,55.70
2022-11-18T17:07:18.003Z,55.70
2022-11-18T17:10:22.055Z,55.80
2022-11-18T17:13:25.805Z,55.90
2022-11-18T17:16:29.293Z,55.90
2022-11-18T17:19:32.751Z,56.10
2022-11-18T17:22:38.230Z,55.90
2022-11-18T17:25:43.342Z,56.30
2022-11-18T17:28:47.460Z,56.30
2022-11-18T17:31:50.770Z,56.90
2022-11-18T17:34:54.704Z,56.50
2022-11-18T17:37:59.989Z,56.40
2022-11-18T17:41:04.031Z,56.50
2022-11-18T17:44:08.974Z,56.50
2022-11-18T17:47:12.577Z,56.60
2022-11-18T17:50:16.182Z,56.90
2022-11-18T17:53:22.960Z,56.50
2022-11-18T17:56:26.663Z,56.50
2022-11-18T17:59:30.068Z,56.50
2022-11-18T18:02:34.918Z,56.60
2022-11-18T18:05:38.720Z,56.60
2022-11-18T18:08:44.475Z,56.50
2022-11-18T18:11:48.595Z,56.60
2022-11-18T18:14:51.638Z,56.70
2022-11-18T18:17:55.269Z,56.70
2022-11-18T18:21:05.412Z,56.70
2022-11-18T18:24:15.018Z,57.10
2022-11-18T18:27:18.588Z,56.60
2022-11-18T18:30:22.082Z,56.70
2022-11-18T18:33:26.225Z,56.90
2022-11-18T18:36:29.832Z,56.70
2022-11-18T18:39:35.072Z,57.20
2022-11-18T18:42:39.389Z,56.70
2022-11-18T18:46:00.490Z,56.60
2022-11-18T18:49:07.780Z,57.20
2022-11-18T18:52:12.286Z,56.70
2022-11-18T18:55:16.922Z,56.60
2022-11-18T18:58:20.836Z,56.60
2022-11-18T19:01:25.113Z,56.60
2022-11-18T19:04:29.089Z,56.70
2022-11-18T19:07:33.501Z,57.20
2022-11-18T19:10:40.532Z,56.70
2022-11-18T19:13:42.946Z,56.70
2022-11-18T19:16:48.029Z,56.70
2022-11-18T19:20:12.083Z,56.70
2022-11-18T19:23:17.518Z,56.70
2022-11-18T19:26:23.037Z,57.00
2022-11-18T19:29:26.775Z,57.20
2022-11-18T19:32:30.393Z,56.70
2022-11-18T19:35:34.075Z,56.70
2022-11-18T19:38:37.679Z,56.70
2022-11-18T19:41:42.735Z,56.70
2022-11-18T19:44:46.336Z,56.80
2022-11-18T19:47:50.260Z,56.70
2022-11-18T19:50:54.119Z,56.80
2022-11-18T19:53:59.784Z,56.90
2022-11-18T19:57:07.372Z,56.60
2022-11-18T20:00:13.121Z,56.80
2022-11-18T20:03:16.754Z,56.70
2022-11-18T20:06:26.405Z,57.00
2022-11-18T20:09:30.518Z,56.70
2022-11-18T20:12:35.555Z,56.80
2022-11-18T20:15:39.041Z,56.90
2022-11-18T20:18:43.072Z,57.50
2022-11-18T20:21:48.650Z,57.00
2022-11-18T20:24:52.628Z,57.10
2022-11-18T20:27:57.869Z,57.30
2022-11-18T20:31:01.764Z,57.30
2022-11-18T20:34:07.977Z,57.40
2022-11-18T20:37:14.921Z,57.30
2022-11-18T20:40:18.917Z,57.30
2022-11-18T20:43:23.661Z,57.40
2022-11-18T20:46:27.985Z,57.50
2022-11-18T20:49:31.513Z,57.30
2022-11-18T20:52:35.681Z,57.50
2022-11-18T20:55:39.138Z,57.60
2022-11-18T20:58:44.661Z,57.90
2022-11-18T21:01:49.112Z,57.60
2022-11-18T21:04:52.583Z,57.70
2022-11-18T21:07:57.245Z,57.80
2022-11-18T21:11:03.678Z,57.90
2022-11-18T21:14:24.560Z,58.20
2022-11-18T21:17:29.117Z,58.20
2022-11-18T21:20:50.877Z,58.50
2022-11-18T21:23:56.204Z,58.30
2022-11-18T21:27:01.861Z,58.40
2022-11-18T21:30:08.947Z,59.10
2022-11-18T21:33:14.377Z,58.70
2022-11-18T21:36:18.697Z,58.90
2022-11-18T21:39:22.601Z,58.90
2022-11-18T21:42:26.314Z,59.00
2022-11-18T21:45:31.150Z,59.90
2022-11-18T21:48:34.953Z,59.00
2022-11-18T21:51:39.558Z,59.20
2022-11-18T21:54:43.289Z,59.30
2022-11-18T21:57:46.899Z,59.60
2022-11-18T22:00:51.564Z,59.70
2022-11-18T22:03:57.901Z,59.80
2022-11-18T22:07:01.635Z,59.90
2022-11-18T22:10:06.342Z,60.10
2022-11-18T22:13:09.639Z,60.10
2022-11-18T22:16:17.404Z,60.20
2022-11-18T22:19:21.202Z,60.50
2022-11-18T22:22:24.497Z,60.40
2022-11-18T22:25:27.845Z,60.40
2022-11-18T22:28:31.857Z,60.40
2022-11-18T22:31:36.586Z,60.60
2022-11-18T22:34:40.064Z,60.80
2022-11-18T22:37:43.589Z,60.30
2022-11-18T22:40:47.074Z,61.00
2022-11-18T22:43:49.442Z,61.00
2022-11-18T22:46:54.982Z,60.60
2022-11-18T22:49:59.130Z,61.20
2022-11-18T22:53:02.529Z,61.20
2022-11-18T22:56:09.099Z,61.30
2022-11-18T22:59:13.301Z,61.40
2022-11-18T23:02:18.151Z,61.40
2022-11-18T23:05:21.827Z,61.40
2022-11-18T23:08:26.743Z,61.30
2022-11-18T23:11:56.187Z,60.80
2022-11-18T23:14:59.679Z,61.30
2022-11-18T23:18:08.687Z,61.30
2022-11-18T23:21:15.423Z,61.70
2022-11-18T23:24:20.658Z,61.20
2022-11-18T23:27:23.991Z,61.00
2022-11-18T23:30:27.520Z,61.30
2022-11-18T23:33:32.152Z,61.40
2022-11-18T23:36:35.383Z,61.40
2022-11-18T23:39:39.065Z,61.90
2022-11-18T23:42:42.484Z,61.50
2022-11-18T23:45:46.269Z,61.40
2022-11-18T23:48:50.869Z,61.50
2022-11-18T23:51:54.297Z,61.50
2022-11-18T23:54:59.765Z,61.10
2022-11-18T23:58:03.066Z,61.60
